sensor_id;sensor_type;location;lat;lon;timestamp;P1;durP1;ratioP1;P2;durP2;ratioP2
60006;SDS011;45863;50.336;3.536;2022-10-16T00:00:37;5.32;;;2.08;;
60006;SDS011;45863;50.336;3.536;2022-10-16T00:03:03;5.70;;;1.70;;
60006;SDS011;45863;50.336;3.536;2022-10-16T00:05:28;5.32;;;1.70;;
60006;SDS011;45863;50.336;3.536;2022-10-16T00:07:54;4.38;;;1.67;;
60006;SDS011;45863;50.336;3.536;2022-10-16T00:10:19;5.57;;;1.90;;
60006;SDS011;45863;50.336;3.536;2022-10-16T00:12:44;4.90;;;1.80;;
60006;SDS011;45863;50.336;3.536;2022-10-16T00:15:09;5.53;;;1.80;;
60006;SDS011;45863;50.336;3.536;2022-10-16T00:17:35;4.45;;;1.75;;
60006;SDS011;45863;50.336;3.536;2022-10-16T00:20:00;7.90;;;2.00;;
60006;SDS011;45863;50.336;3.536;2022-10-16T00:22:25;4.85;;;1.80;;
60006;SDS011;45863;50.336;3.536;2022-10-16T00:24:50;6.77;;;2.10;;
60006;SDS011;45863;50.336;3.536;2022-10-16T00:27:16;5.65;;;2.13;;
60006;SDS011;45863;50.336;3.536;2022-10-16T00:29:42;5.00;;;1.90;;
60006;SDS011;45863;50.336;3.536;2022-10-16T00:32:07;6.68;;;1.80;;
60006;SDS011;45863;50.336;3.536;2022-10-16T00:34:32;4.28;;;1.83;;
60006;SDS011;45863;50.336;3.536;2022-10-16T00:36:57;4.70;;;1.93;;
60006;SDS011;45863;50.336;3.536;2022-10-16T00:39:22;4.83;;;1.97;;
60006;SDS011;45863;50.336;3.536;2022-10-16T00:41:48;4.78;;;1.83;;
60006;SDS011;45863;50.336;3.536;2022-10-16T00:46:58;5.20;;;2.20;;
60006;SDS011;45863;50.336;3.536;2022-10-16T00:49:23;5.50;;;1.80;;
60006;SDS011;45863;50.336;3.536;2022-10-16T00:51:52;6.32;;;2.10;;
60006;SDS011;45863;50.336;3.536;2022-10-16T00:54:22;8.30;;;2.50;;
60006;SDS011;45863;50.336;3.536;2022-10-16T00:56:48;4.93;;;2.05;;
60006;SDS011;45863;50.336;3.536;2022-10-16T00:59:22;4.82;;;2.22;;
60006;SDS011;45863;50.336;3.536;2022-10-16T01:01:49;7.93;;;2.80;;
60006;SDS011;45863;50.336;3.536;2022-10-16T01:04:14;7.18;;;2.65;;
60006;SDS011;45863;50.336;3.536;2022-10-16T01:09:13;6.93;;;2.80;;
60006;SDS011;45863;50.336;3.536;2022-10-16T01:14:21;6.35;;;2.45;;
60006;SDS011;45863;50.336;3.536;2022-10-16T01:16:53;6.43;;;2.58;;
60006;SDS011;45863;50.336;3.536;2022-10-16T01:19:24;7.63;;;2.47;;
60006;SDS011;45863;50.336;3.536;2022-10-16T01:21:51;5.82;;;2.47;;
60006;SDS011;45863;50.336;3.536;2022-10-16T01:29:25;6.28;;;2.70;;
60006;SDS011;45863;50.336;3.536;2022-10-16T01:31:56;5.88;;;3.30;;
60006;SDS011;45863;50.336;3.536;2022-10-16T01:34:33;5.88;;;3.05;;
60006;SDS011;45863;50.336;3.536;2022-10-16T01:37:07;6.38;;;3.22;;
60006;SDS011;45863;50.336;3.536;2022-10-16T01:39:35;7.32;;;3.15;;
60006;SDS011;45863;50.336;3.536;2022-10-16T01:42:02;7.22;;;3.35;;
60006;SDS011;45863;50.336;3.536;2022-10-16T01:44:29;7.72;;;3.40;;
60006;SDS011;45863;50.336;3.536;2022-10-16T01:46:56;7.97;;;3.45;;
60006;SDS011;45863;50.336;3.536;2022-10-16T01:49:22;8.38;;;3.42;;
60006;SDS011;45863;50.336;3.536;2022-10-16T01:51:49;9.00;;;3.97;;
60006;SDS011;45863;50.336;3.536;2022-10-16T01:54:16;8.00;;;3.80;;
60006;SDS011;45863;50.336;3.536;2022-10-16T01:56:44;7.22;;;3.90;;
60006;SDS011;45863;50.336;3.536;2022-10-16T01:59:11;6.72;;;3.50;;
60006;SDS011;45863;50.336;3.536;2022-10-16T02:01:38;6.70;;;3.78;;
60006;SDS011;45863;50.336;3.536;2022-10-16T02:04:10;6.97;;;3.38;;
60006;SDS011;45863;50.336;3.536;2022-10-16T02:06:37;14.35;;;3.75;;
60006;SDS011;45863;50.336;3.536;2022-10-16T02:09:03;6.93;;;3.10;;
60006;SDS011;45863;50.336;3.536;2022-10-16T02:11:28;7.38;;;3.83;;
60006;SDS011;45863;50.336;3.536;2022-10-16T02:13:55;8.45;;;4.30;;
60006;SDS011;45863;50.336;3.536;2022-10-16T02:16:26;7.65;;;3.95;;
60006;SDS011;45863;50.336;3.536;2022-10-16T02:18:57;7.57;;;3.65;;
60006;SDS011;45863;50.336;3.536;2022-10-16T02:21:23;7.40;;;4.30;;
60006;SDS011;45863;50.336;3.536;2022-10-16T02:26:40;10.10;;;4.22;;
60006;SDS011;45863;50.336;3.536;2022-10-16T02:29:08;8.38;;;3.97;;
60006;SDS011;45863;50.336;3.536;2022-10-16T02:31:35;6.47;;;3.78;;
60006;SDS011;45863;50.336;3.536;2022-10-16T02:34:03;9.63;;;3.05;;
60006;SDS011;45863;50.336;3.536;2022-10-16T02:36:30;7.55;;;3.50;;
60006;SDS011;45863;50.336;3.536;2022-10-16T02:38:55;7.57;;;3.47;;
60006;SDS011;45863;50.336;3.536;2022-10-16T02:41:21;8.23;;;4.00;;
60006;SDS011;45863;50.336;3.536;2022-10-16T02:43:46;8.75;;;4.25;;
60006;SDS011;45863;50.336;3.536;2022-10-16T02:46:12;8.45;;;4.03;;
60006;SDS011;45863;50.336;3.536;2022-10-16T02:48:37;7.43;;;3.80;;
60006;SDS011;45863;50.336;3.536;2022-10-16T02:51:02;7.82;;;4.05;;
60006;SDS011;45863;50.336;3.536;2022-10-16T02:53:27;10.40;;;3.72;;
60006;SDS011;45863;50.336;3.536;2022-10-16T02:55:52;8.10;;;4.00;;
60006;SDS011;45863;50.336;3.536;2022-10-16T02:58:18;10.77;;;4.22;;
60006;SDS011;45863;50.336;3.536;2022-10-16T03:00:43;7.00;;;3.67;;
60006;SDS011;45863;50.336;3.536;2022-10-16T03:03:08;8.17;;;3.60;;
60006;SDS011;45863;50.336;3.536;2022-10-16T03:05:33;9.15;;;3.88;;
60006;SDS011;45863;50.336;3.536;2022-10-16T03:07:59;9.67;;;3.90;;
60006;SDS011;45863;50.336;3.536;2022-10-16T03:10:25;7.25;;;4.03;;
60006;SDS011;45863;50.336;3.536;2022-10-16T03:12:50;8.38;;;4.05;;
60006;SDS011;45863;50.336;3.536;2022-10-16T03:15:16;9.50;;;3.63;;
60006;SDS011;45863;50.336;3.536;2022-10-16T03:17:41;7.20;;;3.47;;
60006;SDS011;45863;50.336;3.536;2022-10-16T03:20:06;7.65;;;3.85;;
60006;SDS011;45863;50.336;3.536;2022-10-16T03:22:32;9.55;;;4.03;;
60006;SDS011;45863;50.336;3.536;2022-10-16T03:24:57;10.33;;;3.80;;
60006;SDS011;45863;50.336;3.536;2022-10-16T03:27:22;9.50;;;4.40;;
60006;SDS011;45863;50.336;3.536;2022-10-16T03:29:47;6.70;;;4.10;;
60006;SDS011;45863;50.336;3.536;2022-10-16T03:32:12;10.13;;;3.90;;
60006;SDS011;45863;50.336;3.536;2022-10-16T03:34:38;7.90;;;4.50;;
60006;SDS011;45863;50.336;3.536;2022-10-16T03:37:03;7.87;;;4.27;;
60006;SDS011;45863;50.336;3.536;2022-10-16T03:39:28;8.53;;;4.20;;
60006;SDS011;45863;50.336;3.536;2022-10-16T03:41:53;7.50;;;4.13;;
60006;SDS011;45863;50.336;3.536;2022-10-16T03:44:18;10.77;;;3.73;;
60006;SDS011;45863;50.336;3.536;2022-10-16T03:46:44;10.13;;;4.22;;
60006;SDS011;45863;50.336;3.536;2022-10-16T03:49:09;7.80;;;3.83;;
60006;SDS011;45863;50.336;3.536;2022-10-16T03:51:34;7.97;;;4.18;;
60006;SDS011;45863;50.336;3.536;2022-10-16T03:53:59;8.18;;;4.43;;
60006;SDS011;45863;50.336;3.536;2022-10-16T03:56:24;10.57;;;4.93;;
60006;SDS011;45863;50.336;3.536;2022-10-16T03:58:50;11.27;;;4.50;;
60006;SDS011;45863;50.336;3.536;2022-10-16T04:01:15;11.20;;;4.80;;
60006;SDS011;45863;50.336;3.536;2022-10-16T04:03:40;7.45;;;4.25;;
60006;SDS011;45863;50.336;3.536;2022-10-16T04:06:05;9.82;;;4.30;;
60006;SDS011;45863;50.336;3.536;2022-10-16T04:08:31;11.18;;;5.28;;
60006;SDS011;45863;50.336;3.536;2022-10-16T04:10:59;15.15;;;5.25;;
60006;SDS011;45863;50.336;3.536;2022-10-16T04:13:24;9.10;;;4.78;;
60006;SDS011;45863;50.336;3.536;2022-10-16T04:15:49;11.23;;;4.80;;
60006;SDS011;45863;50.336;3.536;2022-10-16T04:18:14;9.70;;;5.03;;
60006;SDS011;45863;50.336;3.536;2022-10-16T04:20:40;13.65;;;4.97;;
60006;SDS011;45863;50.336;3.536;2022-10-16T04:23:05;9.48;;;4.82;;
60006;SDS011;45863;50.336;3.536;2022-10-16T04:25:30;11.03;;;4.90;;
60006;SDS011;45863;50.336;3.536;2022-10-16T04:27:55;9.48;;;4.53;;
60006;SDS011;45863;50.336;3.536;2022-10-16T04:30:21;7.88;;;4.15;;
60006;SDS011;45863;50.336;3.536;2022-10-16T04:32:50;10.23;;;4.35;;
60006;SDS011;45863;50.336;3.536;2022-10-16T04:35:15;13.05;;;4.78;;
60006;SDS011;45863;50.336;3.536;2022-10-16T04:37:41;8.38;;;3.67;;
60006;SDS011;45863;50.336;3.536;2022-10-16T04:40:06;11.03;;;4.00;;
60006;SDS011;45863;50.336;3.536;2022-10-16T04:42:31;10.40;;;3.88;;
60006;SDS011;45863;50.336;3.536;2022-10-16T04:44:56;8.93;;;3.35;;
60006;SDS011;45863;50.336;3.536;2022-10-16T04:47:22;6.67;;;3.43;;
60006;SDS011;45863;50.336;3.536;2022-10-16T04:49:47;6.93;;;3.97;;
60006;SDS011;45863;50.336;3.536;2022-10-16T04:52:12;7.22;;;3.33;;
60006;SDS011;45863;50.336;3.536;2022-10-16T04:54:37;7.57;;;3.67;;
60006;SDS011;45863;50.336;3.536;2022-10-16T04:57:02;9.63;;;4.10;;
60006;SDS011;45863;50.336;3.536;2022-10-16T04:59:29;8.60;;;3.60;;
60006;SDS011;45863;50.336;3.536;2022-10-16T05:01:54;7.23;;;3.60;;
60006;SDS011;45863;50.336;3.536;2022-10-16T05:04:20;9.52;;;3.47;;
60006;SDS011;45863;50.336;3.536;2022-10-16T05:06:45;12.82;;;3.90;;
60006;SDS011;45863;50.336;3.536;2022-10-16T05:09:10;9.13;;;3.50;;
60006;SDS011;45863;50.336;3.536;2022-10-16T05:11:35;8.02;;;3.40;;
60006;SDS011;45863;50.336;3.536;2022-10-16T05:14:01;7.95;;;3.15;;
60006;SDS011;45863;50.336;3.536;2022-10-16T05:16:26;8.38;;;3.92;;
60006;SDS011;45863;50.336;3.536;2022-10-16T05:18:51;8.30;;;3.65;;
60006;SDS011;45863;50.336;3.536;2022-10-16T05:21:16;11.30;;;3.60;;
60006;SDS011;45863;50.336;3.536;2022-10-16T05:23:42;8.83;;;3.83;;
60006;SDS011;45863;50.336;3.536;2022-10-16T05:26:07;8.03;;;3.70;;
60006;SDS011;45863;50.336;3.536;2022-10-16T05:28:32;8.32;;;3.95;;
60006;SDS011;45863;50.336;3.536;2022-10-16T05:30:57;13.88;;;3.78;;
60006;SDS011;45863;50.336;3.536;2022-10-16T05:33:26;10.50;;;4.18;;
60006;SDS011;45863;50.336;3.536;2022-10-16T05:35:51;12.02;;;4.40;;
60006;SDS011;45863;50.336;3.536;2022-10-16T05:38:17;10.10;;;4.43;;
60006;SDS011;45863;50.336;3.536;2022-10-16T05:40:42;11.77;;;4.18;;
60006;SDS011;45863;50.336;3.536;2022-10-16T05:43:08;8.05;;;3.63;;
60006;SDS011;45863;50.336;3.536;2022-10-16T05:45:33;9.55;;;4.13;;
60006;SDS011;45863;50.336;3.536;2022-10-16T05:47:59;8.70;;;4.10;;
60006;SDS011;45863;50.336;3.536;2022-10-16T05:50:24;10.98;;;4.10;;
60006;SDS011;45863;50.336;3.536;2022-10-16T05:52:49;9.87;;;4.60;;
60006;SDS011;45863;50.336;3.536;2022-10-16T05:55:15;10.18;;;3.88;;
60006;SDS011;45863;50.336;3.536;2022-10-16T05:57:40;8.02;;;3.67;;
60006;SDS011;45863;50.336;3.536;2022-10-16T06:00:05;9.33;;;4.07;;
60006;SDS011;45863;50.336;3.536;2022-10-16T06:02:31;9.80;;;4.07;;
60006;SDS011;45863;50.336;3.536;2022-10-16T06:04:56;11.70;;;3.88;;
60006;SDS011;45863;50.336;3.536;2022-10-16T06:07:21;9.17;;;3.80;;
60006;SDS011;45863;50.336;3.536;2022-10-16T06:09:48;9.73;;;3.97;;
60006;SDS011;45863;50.336;3.536;2022-10-16T06:12:13;9.63;;;4.28;;
60006;SDS011;45863;50.336;3.536;2022-10-16T06:14:38;6.83;;;3.40;;
60006;SDS011;45863;50.336;3.536;2022-10-16T06:17:03;9.32;;;4.03;;
60006;SDS011;45863;50.336;3.536;2022-10-16T06:19:29;14.20;;;5.80;;
60006;SDS011;45863;50.336;3.536;2022-10-16T06:21:54;25.02;;;9.55;;
60006;SDS011;45863;50.336;3.536;2022-10-16T06:24:19;21.52;;;9.55;;
60006;SDS011;45863;50.336;3.536;2022-10-16T06:26:44;13.75;;;5.00;;
60006;SDS011;45863;50.336;3.536;2022-10-16T06:29:10;12.73;;;5.68;;
60006;SDS011;45863;50.336;3.536;2022-10-16T06:31:35;9.48;;;5.20;;
60006;SDS011;45863;50.336;3.536;2022-10-16T06:34:00;8.93;;;4.80;;
60006;SDS011;45863;50.336;3.536;2022-10-16T06:36:26;8.57;;;5.05;;
60006;SDS011;45863;50.336;3.536;2022-10-16T06:38:51;10.13;;;4.13;;
60006;SDS011;45863;50.336;3.536;2022-10-16T06:41:17;10.38;;;5.45;;
60006;SDS011;45863;50.336;3.536;2022-10-16T06:43:43;9.52;;;4.90;;
60006;SDS011;45863;50.336;3.536;2022-10-16T06:46:10;10.10;;;5.28;;
60006;SDS011;45863;50.336;3.536;2022-10-16T06:48:36;10.50;;;4.82;;
60006;SDS011;45863;50.336;3.536;2022-10-16T06:51:11;11.23;;;5.80;;
60006;SDS011;45863;50.336;3.536;2022-10-16T06:53:39;14.52;;;6.68;;
60006;SDS011;45863;50.336;3.536;2022-10-16T06:56:12;12.75;;;5.43;;
60006;SDS011;45863;50.336;3.536;2022-10-16T06:58:38;9.75;;;5.35;;
60006;SDS011;45863;50.336;3.536;2022-10-16T07:01:03;14.45;;;5.95;;
60006;SDS011;45863;50.336;3.536;2022-10-16T07:03:29;8.80;;;5.65;;
60006;SDS011;45863;50.336;3.536;2022-10-16T07:05:54;13.77;;;5.60;;
60006;SDS011;45863;50.336;3.536;2022-10-16T07:08:19;8.70;;;4.95;;
60006;SDS011;45863;50.336;3.536;2022-10-16T07:10:44;10.35;;;5.15;;
60006;SDS011;45863;50.336;3.536;2022-10-16T07:13:10;9.38;;;4.90;;
60006;SDS011;45863;50.336;3.536;2022-10-16T07:15:38;9.77;;;4.80;;
60006;SDS011;45863;50.336;3.536;2022-10-16T07:18:03;7.65;;;4.10;;
60006;SDS011;45863;50.336;3.536;2022-10-16T07:20:28;10.53;;;4.63;;
60006;SDS011;45863;50.336;3.536;2022-10-16T07:22:54;10.10;;;4.40;;
60006;SDS011;45863;50.336;3.536;2022-10-16T07:25:19;9.57;;;4.30;;
60006;SDS011;45863;50.336;3.536;2022-10-16T07:27:44;8.32;;;4.40;;
60006;SDS011;45863;50.336;3.536;2022-10-16T07:30:09;10.00;;;4.60;;
60006;SDS011;45863;50.336;3.536;2022-10-16T07:32:35;9.25;;;4.15;;
60006;SDS011;45863;50.336;3.536;2022-10-16T07:35:00;9.63;;;4.07;;
60006;SDS011;45863;50.336;3.536;2022-10-16T07:37:25;9.33;;;4.33;;
60006;SDS011;45863;50.336;3.536;2022-10-16T07:39:50;11.63;;;3.63;;
60006;SDS011;45863;50.336;3.536;2022-10-16T07:42:16;10.30;;;3.70;;
60006;SDS011;45863;50.336;3.536;2022-10-16T07:44:41;7.95;;;3.38;;
60006;SDS011;45863;50.336;3.536;2022-10-16T07:47:07;7.23;;;3.97;;
60006;SDS011;45863;50.336;3.536;2022-10-16T07:49:32;9.15;;;3.78;;
60006;SDS011;45863;50.336;3.536;2022-10-16T07:51:57;8.55;;;4.25;;
60006;SDS011;45863;50.336;3.536;2022-10-16T07:54:22;10.82;;;3.95;;
60006;SDS011;45863;50.336;3.536;2022-10-16T07:56:47;6.93;;;2.83;;
60006;SDS011;45863;50.336;3.536;2022-10-16T07:59:13;8.07;;;3.43;;
60006;SDS011;45863;50.336;3.536;2022-10-16T08:01:38;10.20;;;3.53;;
60006;SDS011;45863;50.336;3.536;2022-10-16T08:04:03;6.30;;;3.20;;
60006;SDS011;45863;50.336;3.536;2022-10-16T08:06:28;7.93;;;2.70;;
60006;SDS011;45863;50.336;3.536;2022-10-16T08:08:54;7.45;;;2.90;;
60006;SDS011;45863;50.336;3.536;2022-10-16T08:11:19;6.28;;;3.15;;
60006;SDS011;45863;50.336;3.536;2022-10-16T08:13:45;7.70;;;2.60;;
60006;SDS011;45863;50.336;3.536;2022-10-16T08:16:10;6.30;;;2.53;;
60006;SDS011;45863;50.336;3.536;2022-10-16T08:18:39;8.27;;;2.72;;
60006;SDS011;45863;50.336;3.536;2022-10-16T08:21:05;5.60;;;2.50;;
60006;SDS011;45863;50.336;3.536;2022-10-16T08:23:30;7.55;;;2.38;;
60006;SDS011;45863;50.336;3.536;2022-10-16T08:25:56;6.20;;;2.35;;
60006;SDS011;45863;50.336;3.536;2022-10-16T08:28:26;7.73;;;2.20;;
60006;SDS011;45863;50.336;3.536;2022-10-16T08:30:51;6.25;;;1.92;;
60006;SDS011;45863;50.336;3.536;2022-10-16T08:33:16;6.07;;;1.88;;
60006;SDS011;45863;50.336;3.536;2022-10-16T08:35:42;6.63;;;1.70;;
60006;SDS011;45863;50.336;3.536;2022-10-16T08:38:07;6.72;;;1.92;;
60006;SDS011;45863;50.336;3.536;2022-10-16T08:40:33;7.18;;;2.08;;
60006;SDS011;45863;50.336;3.536;2022-10-16T08:48:41;6.35;;;2.22;;
60006;SDS011;45863;50.336;3.536;2022-10-16T08:51:09;4.72;;;1.58;;
60006;SDS011;45863;50.336;3.536;2022-10-16T08:53:39;7.68;;;2.67;;
60006;SDS011;45863;50.336;3.536;2022-10-16T08:56:07;6.32;;;2.28;;
60006;SDS011;45863;50.336;3.536;2022-10-16T08:58:33;7.28;;;2.55;;
60006;SDS011;45863;50.336;3.536;2022-10-16T09:00:59;5.40;;;2.33;;
60006;SDS011;45863;50.336;3.536;2022-10-16T09:08:25;7.07;;;2.53;;
60006;SDS011;45863;50.336;3.536;2022-10-16T09:13:55;6.75;;;2.47;;
60006;SDS011;45863;50.336;3.536;2022-10-16T09:16:28;5.75;;;2.38;;
60006;SDS011;45863;50.336;3.536;2022-10-16T09:19:30;4.75;;;1.80;;
60006;SDS011;45863;50.336;3.536;2022-10-16T09:21:46;4.75;;;1.67;;
60006;SDS011;45863;50.336;3.536;2022-10-16T09:24:17;4.57;;;1.73;;
60006;SDS011;45863;50.336;3.536;2022-10-16T09:26:43;5.95;;;1.65;;
60006;SDS011;45863;50.336;3.536;2022-10-16T09:29:11;6.60;;;1.63;;
60006;SDS011;45863;50.336;3.536;2022-10-16T09:31:37;5.88;;;1.50;;
60006;SDS011;45863;50.336;3.536;2022-10-16T09:34:02;6.00;;;1.67;;
60006;SDS011;45863;50.336;3.536;2022-10-16T09:36:32;5.82;;;1.42;;
60006;SDS011;45863;50.336;3.536;2022-10-16T09:39:04;6.72;;;1.70;;
60006;SDS011;45863;50.336;3.536;2022-10-16T09:41:29;6.25;;;1.75;;
60006;SDS011;45863;50.336;3.536;2022-10-16T09:43:55;4.68;;;1.60;;
60006;SDS011;45863;50.336;3.536;2022-10-16T09:46:26;3.80;;;1.50;;
60006;SDS011;45863;50.336;3.536;2022-10-16T09:48:54;5.28;;;1.90;;
60006;SDS011;45863;50.336;3.536;2022-10-16T09:53:48;6.40;;;1.75;;
60006;SDS011;45863;50.336;3.536;2022-10-16T09:56:32;5.05;;;1.90;;
60006;SDS011;45863;50.336;3.536;2022-10-16T09:58:59;6.80;;;1.70;;
60006;SDS011;45863;50.336;3.536;2022-10-16T10:01:27;4.35;;;1.80;;
60006;SDS011;45863;50.336;3.536;2022-10-16T10:03:55;6.75;;;1.80;;
60006;SDS011;45863;50.336;3.536;2022-10-16T10:06:26;6.43;;;1.67;;
60006;SDS011;45863;50.336;3.536;2022-10-16T10:09:37;4.55;;;1.75;;
60006;SDS011;45863;50.336;3.536;2022-10-16T10:11:38;4.85;;;1.45;;
60006;SDS011;45863;50.336;3.536;2022-10-16T10:17:44;4.68;;;1.67;;
60006;SDS011;45863;50.336;3.536;2022-10-16T10:20:33;5.65;;;1.90;;
60006;SDS011;45863;50.336;3.536;2022-10-16T10:30:10;6.43;;;2.17;;
60006;SDS011;45863;50.336;3.536;2022-10-16T10:32:49;6.90;;;1.50;;
60006;SDS011;45863;50.336;3.536;2022-10-16T10:35:20;7.38;;;1.65;;
60006;SDS011;45863;50.336;3.536;2022-10-16T10:37:51;7.53;;;1.58;;
60006;SDS011;45863;50.336;3.536;2022-10-16T11:05:49;6.78;;;1.73;;
60006;SDS011;45863;50.336;3.536;2022-10-16T11:08:17;6.30;;;1.80;;
60006;SDS011;45863;50.336;3.536;2022-10-16T11:10:48;6.03;;;1.55;;
60006;SDS011;45863;50.336;3.536;2022-10-16T11:13:33;5.55;;;1.27;;
60006;SDS011;45863;50.336;3.536;2022-10-16T11:16:03;4.68;;;1.50;;
60006;SDS011;45863;50.336;3.536;2022-10-16T11:18:39;7.80;;;1.70;;
60006;SDS011;45863;50.336;3.536;2022-10-16T11:21:08;7.13;;;1.90;;
60006;SDS011;45863;50.336;3.536;2022-10-16T11:23:46;7.40;;;1.58;;
60006;SDS011;45863;50.336;3.536;2022-10-16T11:26:16;5.27;;;1.37;;
60006;SDS011;45863;50.336;3.536;2022-10-16T11:31:29;5.43;;;1.50;;
60006;SDS011;45863;50.336;3.536;2022-10-16T11:34:09;7.05;;;1.50;;
60006;SDS011;45863;50.336;3.536;2022-10-16T11:36:49;8.98;;;1.50;;
60006;SDS011;45863;50.336;3.536;2022-10-16T11:41:50;4.83;;;1.60;;
60006;SDS011;45863;50.336;3.536;2022-10-16T11:46:46;7.40;;;1.60;;
60006;SDS011;45863;50.336;3.536;2022-10-16T11:49:18;6.90;;;1.30;;
60006;SDS011;45863;50.336;3.536;2022-10-16T11:54:39;5.15;;;1.50;;
60006;SDS011;45863;50.336;3.536;2022-10-16T11:57:14;5.28;;;1.63;;
60006;SDS011;45863;50.336;3.536;2022-10-16T12:05:05;5.35;;;1.35;;
60006;SDS011;45863;50.336;3.536;2022-10-16T12:07:39;5.45;;;1.50;;
60006;SDS011;45863;50.336;3.536;2022-10-16T12:10:20;5.38;;;1.30;;
60006;SDS011;45863;50.336;3.536;2022-10-16T12:12:45;6.07;;;1.40;;
60006;SDS011;45863;50.336;3.536;2022-10-16T12:15:19;3.63;;;1.08;;
60006;SDS011;45863;50.336;3.536;2022-10-16T12:17:44;5.15;;;1.40;;
60006;SDS011;45863;50.336;3.536;2022-10-16T12:22:41;3.90;;;1.13;;
60006;SDS011;45863;50.336;3.536;2022-10-16T12:27:53;4.15;;;1.27;;
60006;SDS011;45863;50.336;3.536;2022-10-16T12:30:20;7.80;;;1.50;;
60006;SDS011;45863;50.336;3.536;2022-10-16T12:32:52;7.13;;;1.10;;
60006;SDS011;45863;50.336;3.536;2022-10-16T12:37:43;4.47;;;1.73;;
60006;SDS011;45863;50.336;3.536;2022-10-16T12:40:22;2.88;;;0.85;;
60006;SDS011;45863;50.336;3.536;2022-10-16T12:42:48;4.53;;;1.00;;
60006;SDS011;45863;50.336;3.536;2022-10-16T12:47:51;4.85;;;1.48;;
60006;SDS011;45863;50.336;3.536;2022-10-16T12:50:32;5.43;;;1.00;;
60006;SDS011;45863;50.336;3.536;2022-10-16T12:52:58;3.83;;;1.17;;
60006;SDS011;45863;50.336;3.536;2022-10-16T12:55:24;4.03;;;0.82;;
60006;SDS011;45863;50.336;3.536;2022-10-16T13:00:24;6.22;;;1.23;;
60006;SDS011;45863;50.336;3.536;2022-10-16T13:10:23;5.50;;;1.30;;
60006;SDS011;45863;50.336;3.536;2022-10-16T13:20:22;4.65;;;1.10;;
60006;SDS011;45863;50.336;3.536;2022-10-16T13:28:34;4.28;;;1.38;;
60006;SDS011;45863;50.336;3.536;2022-10-16T13:31:00;5.13;;;1.23;;
60006;SDS011;45863;50.336;3.536;2022-10-16T13:33:36;2.97;;;1.08;;
60006;SDS011;45863;50.336;3.536;2022-10-16T13:36:03;2.30;;;1.10;;
60006;SDS011;45863;50.336;3.536;2022-10-16T13:38:32;4.22;;;1.00;;
60006;SDS011;45863;50.336;3.536;2022-10-16T13:43:31;6.05;;;1.20;;
60006;SDS011;45863;50.336;3.536;2022-10-16T13:46:10;2.25;;;0.85;;
60006;SDS011;45863;50.336;3.536;2022-10-16T13:48:36;3.17;;;0.90;;
60006;SDS011;45863;50.336;3.536;2022-10-16T13:51:12;5.00;;;1.03;;
60006;SDS011;45863;50.336;3.536;2022-10-16T13:53:37;2.90;;;0.90;;
60006;SDS011;45863;50.336;3.536;2022-10-16T13:56:03;3.92;;;0.85;;
60006;SDS011;45863;50.336;3.536;2022-10-16T13:58:29;3.33;;;0.93;;
60006;SDS011;45863;50.336;3.536;2022-10-16T14:00:55;3.78;;;1.05;;
60006;SDS011;45863;50.336;3.536;2022-10-16T14:03:21;2.85;;;1.00;;
60006;SDS011;45863;50.336;3.536;2022-10-16T14:05:47;4.88;;;0.90;;
60006;SDS011;45863;50.336;3.536;2022-10-16T14:08:13;2.15;;;0.85;;
60006;SDS011;45863;50.336;3.536;2022-10-16T14:10:38;2.05;;;0.70;;
60006;SDS011;45863;50.336;3.536;2022-10-16T14:13:05;3.75;;;1.02;;
60006;SDS011;45863;50.336;3.536;2022-10-16T14:15:32;4.75;;;1.20;;
60006;SDS011;45863;50.336;3.536;2022-10-16T14:17:58;3.70;;;1.00;;
60006;SDS011;45863;50.336;3.536;2022-10-16T14:20:25;2.60;;;1.10;;
60006;SDS011;45863;50.336;3.536;2022-10-16T14:22:57;4.53;;;0.90;;
60006;SDS011;45863;50.336;3.536;2022-10-16T14:25:27;2.67;;;1.05;;
60006;SDS011;45863;50.336;3.536;2022-10-16T14:28:36;2.15;;;1.02;;
60006;SDS011;45863;50.336;3.536;2022-10-16T14:33:20;4.15;;;1.00;;
60006;SDS011;45863;50.336;3.536;2022-10-16T14:35:46;4.30;;;0.90;;
60006;SDS011;45863;50.336;3.536;2022-10-16T14:38:18;5.22;;;1.20;;
60006;SDS011;45863;50.336;3.536;2022-10-16T14:40:46;4.70;;;0.90;;
60006;SDS011;45863;50.336;3.536;2022-10-16T14:43:17;3.45;;;1.10;;
60006;SDS011;45863;50.336;3.536;2022-10-16T14:45:49;1.90;;;1.00;;
60006;SDS011;45863;50.336;3.536;2022-10-16T14:48:16;3.53;;;1.08;;
60006;SDS011;45863;50.336;3.536;2022-10-16T14:50:42;3.08;;;1.05;;
60006;SDS011;45863;50.336;3.536;2022-10-16T14:53:11;4.80;;;1.10;;
60006;SDS011;45863;50.336;3.536;2022-10-16T14:55:37;2.17;;;1.20;;
60006;SDS011;45863;50.336;3.536;2022-10-16T14:58:02;4.30;;;1.30;;
60006;SDS011;45863;50.336;3.536;2022-10-16T15:00:27;3.43;;;1.40;;
60006;SDS011;45863;50.336;3.536;2022-10-16T15:02:53;3.72;;;0.90;;
60006;SDS011;45863;50.336;3.536;2022-10-16T15:05:19;3.30;;;1.30;;
60006;SDS011;45863;50.336;3.536;2022-10-16T15:07:45;3.45;;;1.10;;
60006;SDS011;45863;50.336;3.536;2022-10-16T15:10:11;4.68;;;1.30;;
60006;SDS011;45863;50.336;3.536;2022-10-16T15:12:37;4.68;;;1.23;;
60006;SDS011;45863;50.336;3.536;2022-10-16T15:15:09;3.15;;;1.20;;
60006;SDS011;45863;50.336;3.536;2022-10-16T15:17:40;3.45;;;1.00;;
60006;SDS011;45863;50.336;3.536;2022-10-16T15:20:05;4.80;;;1.10;;
60006;SDS011;45863;50.336;3.536;2022-10-16T15:22:31;3.10;;;0.95;;
60006;SDS011;45863;50.336;3.536;2022-10-16T15:24:56;3.63;;;1.27;;
60006;SDS011;45863;50.336;3.536;2022-10-16T15:27:21;3.13;;;1.00;;
60006;SDS011;45863;50.336;3.536;2022-10-16T15:29:46;2.47;;;1.03;;
60006;SDS011;45863;50.336;3.536;2022-10-16T15:32:11;3.73;;;1.13;;
60006;SDS011;45863;50.336;3.536;2022-10-16T15:34:37;2.58;;;1.10;;
60006;SDS011;45863;50.336;3.536;2022-10-16T15:37:02;4.60;;;1.65;;
60006;SDS011;45863;50.336;3.536;2022-10-16T15:39:28;2.97;;;1.10;;
60006;SDS011;45863;50.336;3.536;2022-10-16T15:41:53;2.83;;;1.20;;
60006;SDS011;45863;50.336;3.536;2022-10-16T15:44:19;3.28;;;1.10;;
60006;SDS011;45863;50.336;3.536;2022-10-16T15:46:44;3.58;;;1.20;;
60006;SDS011;45863;50.336;3.536;2022-10-16T15:49:09;2.25;;;1.00;;
60006;SDS011;45863;50.336;3.536;2022-10-16T15:51:37;2.67;;;1.20;;
60006;SDS011;45863;50.336;3.536;2022-10-16T15:54:02;7.00;;;1.33;;
60006;SDS011;45863;50.336;3.536;2022-10-16T15:56:28;4.63;;;1.48;;
60006;SDS011;45863;50.336;3.536;2022-10-16T15:58:53;5.93;;;1.65;;
60006;SDS011;45863;50.336;3.536;2022-10-16T16:01:19;2.88;;;1.27;;
60006;SDS011;45863;50.336;3.536;2022-10-16T16:03:44;4.45;;;1.50;;
60006;SDS011;45863;50.336;3.536;2022-10-16T16:06:10;15.63;;;4.07;;
60006;SDS011;45863;50.336;3.536;2022-10-16T16:08:36;9.27;;;2.47;;
60006;SDS011;45863;50.336;3.536;2022-10-16T16:11:02;8.50;;;2.17;;
60006;SDS011;45863;50.336;3.536;2022-10-16T16:13:28;13.35;;;1.90;;
60006;SDS011;45863;50.336;3.536;2022-10-16T16:15:53;7.35;;;1.58;;
60006;SDS011;45863;50.336;3.536;2022-10-16T16:18:18;7.03;;;1.80;;
60006;SDS011;45863;50.336;3.536;2022-10-16T16:20:44;8.60;;;2.00;;
60006;SDS011;45863;50.336;3.536;2022-10-16T16:23:09;4.30;;;1.50;;
60006;SDS011;45863;50.336;3.536;2022-10-16T16:25:34;7.75;;;1.42;;
60006;SDS011;45863;50.336;3.536;2022-10-16T16:27:59;3.83;;;1.35;;
60006;SDS011;45863;50.336;3.536;2022-10-16T16:30:25;4.00;;;1.30;;
60006;SDS011;45863;50.336;3.536;2022-10-16T16:32:50;8.02;;;1.60;;
60006;SDS011;45863;50.336;3.536;2022-10-16T16:35:16;6.55;;;1.80;;
60006;SDS011;45863;50.336;3.536;2022-10-16T16:37:41;4.53;;;1.85;;
60006;SDS011;45863;50.336;3.536;2022-10-16T16:40:06;4.57;;;1.67;;
60006;SDS011;45863;50.336;3.536;2022-10-16T16:42:31;7.97;;;1.98;;
60006;SDS011;45863;50.336;3.536;2022-10-16T16:44:57;6.95;;;1.77;;
60006;SDS011;45863;50.336;3.536;2022-10-16T16:47:22;6.55;;;1.73;;